sensor_id;sensor_type;location;lat;lon;timestamp;pressure;altitude;pressure_sealevel;temperature;humidity
64115;BME280;62188;35.640;139.748;2023-03-23T00:01:37;101672.56;;;20.52;46.02
64115;BME280;62188;35.640;139.748;2023-03-23T00:04:02;101670.30;;;20.59;45.87
64115;BME280;62188;35.640;139.748;2023-03-23T00:06:29;101664.60;;;20.90;45.73
64115;BME280;62188;35.640;139.748;2023-03-23T00:08:55;101663.74;;;20.87;45.89
64115;BME280;62188;35.640;139.748;2023-03-23T00:11:21;101665.45;;;20.40;45.73
64115;BME280;62188;35.640;139.748;2023-03-23T00:13:46;101668.26;;;20.43;45.88
64115;BME280;62188;35.640;139.748;2023-03-23T00:16:11;101665.11;;;20.45;45.64
64115;BME280;62188;35.640;139.748;2023-03-23T00:18:35;101663.72;;;20.67;45.81
64115;BME280;62188;35.640;139.748;2023-03-23T00:21:01;101663.47;;;20.87;45.85
64115;BME280;62188;35.640;139.748;2023-03-23T00:23:27;101662.92;;;20.36;45.92
64115;BME280;62188;35.640;139.748;2023-03-23T00:25:54;101663.77;;;20.42;45.80
64115;BME280;62188;35.640;139.748;2023-03-23T00:28:18;101657.37;;;20.44;45.96
64115;BME280;62188;35.640;139.748;2023-03-23T00:30:43;101650.03;;;20.91;46.05
64115;BME280;62188;35.640;139.748;2023-03-23T00:33:09;101643.15;;;20.51;46.18
64115;BME280;62188;35.640;139.748;2023-03-23T00:35:34;101635.68;;;20.78;46.28
64115;BME280;62188;35.640;139.748;2023-03-23T00:38:07;101634.72;;;21.02;46.33
64115;BME280;62188;35.640;139.748;2023-03-23T00:40:24;101628.49;;;20.55;46.52
64115;BME280;62188;35.640;139.748;2023-03-23T00:42:50;101628.22;;;20.56;46.47
64115;BME280;62188;35.640;139.748;2023-03-23T00:45:16;101627.64;;;20.85;46.52
64115;BME280;62188;35.640;139.748;2023-03-23T00:47:40;101622.80;;;20.59;46.33
64115;BME280;62188;35.640;139.748;2023-03-23T00:50:08;101619.77;;;20.61;46.34
64115;BME280;62188;35.640;139.748;2023-03-23T00:52:32;101612.93;;;20.88;46.30
64115;BME280;62188;35.640;139.748;2023-03-23T00:54:57;101609.35;;;20.53;46.18
64115;BME280;62188;35.640;139.748;2023-03-23T00:57:23;101609.27;;;20.49;46.27
64115;BME280;62188;35.640;139.748;2023-03-23T00:59:49;101607.49;;;20.72;46.56
64115;BME280;62188;35.640;139.748;2023-03-23T01:02:13;101605.75;;;20.98;46.67
64115;BME280;62188;35.640;139.748;2023-03-23T01:04:41;101603.12;;;20.99;46.34
64115;BME280;62188;35.640;139.748;2023-03-23T01:07:05;101600.28;;;20.70;46.57
64115;BME280;62188;35.640;139.748;2023-03-23T01:09:31;101603.45;;;20.71;46.69
64115;BME280;62188;35.640;139.748;2023-03-23T01:11:56;101606.04;;;20.40;46.64
64115;BME280;62188;35.640;139.748;2023-03-23T01:14:22;101606.53;;;20.90;46.82
64115;BME280;62188;35.640;139.748;2023-03-23T01:16:48;101603.04;;;20.71;46.91
64115;BME280;62188;35.640;139.748;2023-03-23T01:19:13;101600.20;;;20.44;47.08
64115;BME280;62188;35.640;139.748;2023-03-23T01:21:38;101588.76;;;20.47;47.30
64115;BME280;62188;35.640;139.748;2023-03-23T01:24:04;101578.08;;;20.71;47.37
64115;BME280;62188;35.640;139.748;2023-03-23T01:26:30;101572.24;;;20.73;47.64
64115;BME280;62188;35.640;139.748;2023-03-23T01:28:55;101566.16;;;20.78;47.70
64115;BME280;62188;35.640;139.748;2023-03-23T01:31:22;101558.02;;;20.57;47.88
64115;BME280;62188;35.640;139.748;2023-03-23T01:33:46;101551.79;;;20.76;47.99
64115;BME280;62188;35.640;139.748;2023-03-23T01:36:14;101552.11;;;21.02;48.08
64115;BME280;62188;35.640;139.748;2023-03-23T01:38:37;101548.66;;;21.03;47.89
64115;BME280;62188;35.640;139.748;2023-03-23T01:41:04;101545.90;;;20.57;48.18
64115;BME280;62188;35.640;139.748;2023-03-23T01:43:28;101545.02;;;21.03;48.25
64115;BME280;62188;35.640;139.748;2023-03-23T01:45:53;101538.37;;;20.82;48.36
64115;BME280;62188;35.640;139.748;2023-03-23T01:48:22;101536.64;;;21.05;48.39
64115;BME280;62188;35.640;139.748;2023-03-23T01:50:51;101533.26;;;20.58;48.55
64115;BME280;62188;35.640;139.748;2023-03-23T01:53:11;101529.96;;;21.00;48.48
64115;BME280;62188;35.640;139.748;2023-03-23T01:55:37;101522.09;;;20.50;48.58
64115;BME280;62188;35.640;139.748;2023-03-23T01:58:01;101520.04;;;20.70;48.77
64115;BME280;62188;35.640;139.748;2023-03-23T02:00:34;101515.32;;;21.00;49.07
64115;BME280;62188;35.640;139.748;2023-03-23T02:02:53;101509.48;;;20.78;49.06
64115;BME280;62188;35.640;139.748;2023-03-23T02:05:24;101499.83;;;20.77;48.97
64115;BME280;62188;35.640;139.748;2023-03-23T02:07:43;101491.95;;;20.54;48.91
64115;BME280;62188;35.640;139.748;2023-03-23T02:10:09;101484.84;;;20.57;48.89
64115;BME280;62188;35.640;139.748;2023-03-23T02:12:34;101481.25;;;20.75;48.85
64115;BME280;62188;35.640;139.748;2023-03-23T02:14:59;101476.14;;;20.79;48.89
64115;BME280;62188;35.640;139.748;2023-03-23T02:17:28;101471.08;;;20.56;48.92
64115;BME280;62188;35.640;139.748;2023-03-23T02:24:51;101451.04;;;20.75;48.99
64115;BME280;62188;35.640;139.748;2023-03-23T02:27:10;101445.98;;;20.80;48.92
64115;BME280;62188;35.640;139.748;2023-03-23T02:29:47;101439.89;;;20.79;48.72
64115;BME280;62188;35.640;139.748;2023-03-23T02:32:06;101435.20;;;20.76;48.76
64115;BME280;62188;35.640;139.748;2023-03-23T02:34:26;101430.80;;;21.01;48.76
64115;BME280;62188;35.640;139.748;2023-03-23T02:36:51;101426.71;;;20.78;49.04
64115;BME280;62188;35.640;139.748;2023-03-23T02:39:16;101419.67;;;20.80;48.76
64115;BME280;62188;35.640;139.748;2023-03-23T02:41:42;101413.55;;;20.97;48.67
64115;BME280;62188;35.640;139.748;2023-03-23T02:44:05;101407.48;;;20.75;48.74
64115;BME280;62188;35.640;139.748;2023-03-23T02:46:30;101403.17;;;20.79;48.79
64115;BME280;62188;35.640;139.748;2023-03-23T02:48:57;101399.23;;;21.27;49.34
64115;BME280;62188;35.640;139.748;2023-03-23T02:51:21;101398.10;;;21.07;49.52
64115;BME280;62188;35.640;139.748;2023-03-23T02:53:46;101393.29;;;20.82;49.62
64115;BME280;62188;35.640;139.748;2023-03-23T02:56:17;101385.01;;;20.77;49.14
64115;BME280;62188;35.640;139.748;2023-03-23T02:58:37;101377.17;;;21.22;49.25
64115;BME280;62188;35.640;139.748;2023-03-23T03:01:15;101374.08;;;21.25;49.42
64115;BME280;62188;35.640;139.748;2023-03-23T03:03:29;101368.82;;;20.81;49.59
64115;BME280;62188;35.640;139.748;2023-03-23T03:06:01;101360.86;;;20.75;49.44
64115;BME280;62188;35.640;139.748;2023-03-23T03:08:25;101351.76;;;20.90;49.37
64115;BME280;62188;35.640;139.748;2023-03-23T03:10:51;101339.96;;;20.86;49.59
64115;BME280;62188;35.640;139.748;2023-03-23T03:13:14;101334.37;;;20.59;49.72
64115;BME280;62188;35.640;139.748;2023-03-23T03:15:40;101326.00;;;20.76;49.54
64115;BME280;62188;35.640;139.748;2023-03-23T03:18:07;101322.20;;;20.47;49.97
64115;BME280;62188;35.640;139.748;2023-03-23T03:20:28;101315.80;;;20.68;50.04
64115;BME280;62188;35.640;139.748;2023-03-23T03:22:52;101305.17;;;20.47;50.01
64115;BME280;62188;35.640;139.748;2023-03-23T03:25:18;101296.04;;;20.52;50.22
64115;BME280;62188;35.640;139.748;2023-03-23T03:27:44;101289.99;;;21.06;50.27
64115;BME280;62188;35.640;139.748;2023-03-23T03:30:11;101278.81;;;21.08;50.09
64115;BME280;62188;35.640;139.748;2023-03-23T03:32:40;101270.42;;;20.53;50.04
64115;BME280;62188;35.640;139.748;2023-03-23T03:35:02;101264.97;;;20.79;50.27
64115;BME280;62188;35.640;139.748;2023-03-23T03:37:24;101256.82;;;20.58;50.35
64115;BME280;62188;35.640;139.748;2023-03-23T03:39:50;101247.77;;;20.59;50.48
64115;BME280;62188;35.640;139.748;2023-03-23T03:42:15;101241.58;;;20.78;50.30
64115;BME280;62188;35.640;139.748;2023-03-23T03:44:41;101230.89;;;20.98;50.59
64115;BME280;62188;35.640;139.748;2023-03-23T03:47:06;101224.04;;;20.76;50.86
64115;BME280;62188;35.640;139.748;2023-03-23T03:49:32;101220.18;;;20.75;50.65
64115;BME280;62188;35.640;139.748;2023-03-23T03:51:57;101211.86;;;21.03;50.76
64115;BME280;62188;35.640;139.748;2023-03-23T03:54:23;101204.24;;;20.77;50.73
64115;BME280;62188;35.640;139.748;2023-03-23T03:56:48;101193.83;;;21.01;50.84
64115;BME280;62188;35.640;139.748;2023-03-23T03:59:14;101180.86;;;20.68;50.39
64115;BME280;62188;35.640;139.748;2023-03-23T04:01:40;101174.43;;;20.92;50.61
64115;BME280;62188;35.640;139.748;2023-03-23T04:04:05;101170.64;;;20.45;50.73
64115;BME280;62188;35.640;139.748;2023-03-23T04:06:30;101163.36;;;20.98;50.84
64115;BME280;62188;35.640;139.748;2023-03-23T04:08:56;101153.63;;;21.00;50.91
64115;BME280;62188;35.640;139.748;2023-03-23T04:11:21;101146.37;;;20.53;50.69
64115;BME280;62188;35.640;139.748;2023-03-23T04:13:46;101136.36;;;20.97;50.56
64115;BME280;62188;35.640;139.748;2023-03-23T04:16:11;101126.59;;;20.97;50.68
64115;BME280;62188;35.640;139.748;2023-03-23T04:18:37;101120.76;;;20.99;50.87
64115;BME280;62188;35.640;139.748;2023-03-23T04:21:04;101110.75;;;20.83;51.09
64115;BME280;62188;35.640;139.748;2023-03-23T04:23:30;101099.84;;;21.10;50.91
64115;BME280;62188;35.640;139.748;2023-03-23T04:25:54;101093.27;;;21.09;50.80
64115;BME280;62188;35.640;139.748;2023-03-23T04:28:19;101090.85;;;21.05;50.99
64115;BME280;62188;35.640;139.748;2023-03-23T04:30:46;101085.76;;;20.53;51.04
64115;BME280;62188;35.640;139.748;2023-03-23T04:33:11;101081.35;;;20.54;51.02
64115;BME280;62188;35.640;139.748;2023-03-23T04:35:35;101078.70;;;20.76;51.04
64115;BME280;62188;35.640;139.748;2023-03-23T04:38:01;101074.68;;;20.73;50.75
64115;BME280;62188;35.640;139.748;2023-03-23T04:40:27;101068.84;;;21.02;50.89
64115;BME280;62188;35.640;139.748;2023-03-23T04:42:52;101057.73;;;21.09;50.98
64115;BME280;62188;35.640;139.748;2023-03-23T04:45:19;101047.04;;;20.68;50.95
64115;BME280;62188;35.640;139.748;2023-03-23T04:47:43;101043.68;;;21.18;50.86
64115;BME280;62188;35.640;139.748;2023-03-23T04:50:12;101042.07;;;20.70;50.88
64115;BME280;62188;35.640;139.748;2023-03-23T04:52:35;101034.84;;;20.69;50.86
64115;BME280;62188;35.640;139.748;2023-03-23T04:55:00;101028.97;;;20.64;50.94
64115;BME280;62188;35.640;139.748;2023-03-23T04:57:25;101021.70;;;20.95;50.97
64115;BME280;62188;35.640;139.748;2023-03-23T04:59:51;101011.69;;;20.78;51.03
64115;BME280;62188;35.640;139.748;2023-03-23T05:02:17;101005.27;;;21.03;50.71
64115;BME280;62188;35.640;139.748;2023-03-23T05:04:42;100997.87;;;21.11;50.71
64115;BME280;62188;35.640;139.748;2023-03-23T05:07:07;100989.70;;;20.92;50.65
64115;BME280;62188;35.640;139.748;2023-03-23T05:09:33;100980.71;;;20.94;50.31
64115;BME280;62188;35.640;139.748;2023-03-23T05:12:02;100978.78;;;21.13;50.49
64115;BME280;62188;35.640;139.748;2023-03-23T05:14:23;100968.32;;;20.94;50.40
64115;BME280;62188;35.640;139.748;2023-03-23T05:16:49;100965.73;;;20.96;50.33
64115;BME280;62188;35.640;139.748;2023-03-23T05:19:19;100964.85;;;21.00;50.29
64115;BME280;62188;35.640;139.748;2023-03-23T05:21:40;100962.61;;;20.99;50.28
64115;BME280;62188;35.640;139.748;2023-03-23T05:24:06;100958.96;;;20.99;50.42
64115;BME280;62188;35.640;139.748;2023-03-23T05:26:31;100958.96;;;20.99;50.61
64115;BME280;62188;35.640;139.748;2023-03-23T05:28:57;100956.82;;;20.99;50.83
64115;BME280;62188;35.640;139.748;2023-03-23T05:31:22;100961.52;;;21.21;51.03
64115;BME280;62188;35.640;139.748;2023-03-23T05:33:47;100956.83;;;20.97;51.06
64115;BME280;62188;35.640;139.748;2023-03-23T05:36:13;100946.88;;;20.97;51.06
64115;BME280;62188;35.640;139.748;2023-03-23T05:38:38;100944.34;;;21.00;51.05
64115;BME280;62188;35.640;139.748;2023-03-23T05:41:04;100938.71;;;21.00;51.08
64115;BME280;62188;35.640;139.748;2023-03-23T05:43:29;100930.84;;;21.01;51.23
64115;BME280;62188;35.640;139.748;2023-03-23T05:45:55;100929.78;;;21.01;51.18
64115;BME280;62188;35.640;139.748;2023-03-23T05:48:20;100926.06;;;21.01;51.11
64115;BME280;62188;35.640;139.748;2023-03-23T05:50:45;100915.04;;;21.25;51.03
64115;BME280;62188;35.640;139.748;2023-03-23T05:53:11;100905.25;;;21.02;51.29
64115;BME280;62188;35.640;139.748;2023-03-23T05:55:37;100892.03;;;21.31;51.38
64115;BME280;62188;35.640;139.748;2023-03-23T05:58:02;100884.05;;;21.11;51.30
64115;BME280;62188;35.640;139.748;2023-03-23T06:00:28;100878.49;;;21.15;51.34
64115;BME280;62188;35.640;139.748;2023-03-23T06:02:56;100873.02;;;21.21;51.15
64115;BME280;62188;35.640;139.748;2023-03-23T06:05:20;100868.60;;;21.23;50.99
64115;BME280;62188;35.640;139.748;2023-03-23T06:07:44;100856.87;;;21.45;50.92
64115;BME280;62188;35.640;139.748;2023-03-23T06:10:10;100857.52;;;21.20;51.02
64115;BME280;62188;35.640;139.748;2023-03-23T06:12:36;100858.94;;;21.17;51.05
64115;BME280;62188;35.640;139.748;2023-03-23T06:15:01;100851.55;;;21.09;50.86
64115;BME280;62188;35.640;139.748;2023-03-23T06:17:26;100847.12;;;21.39;50.69
64115;BME280;62188;35.640;139.748;2023-03-23T06:19:51;100845.70;;;21.21;50.46
64115;BME280;62188;35.640;139.748;2023-03-23T06:22:17;100839.07;;;21.24;50.35
64115;BME280;62188;35.640;139.748;2023-03-23T06:24:42;100833.67;;;21.27;50.52
64115;BME280;62188;35.640;139.748;2023-03-23T06:27:08;100826.14;;;21.29;50.68
64115;BME280;62188;35.640;139.748;2023-03-23T06:29:33;100815.30;;;21.33;50.78
64115;BME280;62188;35.640;139.748;2023-03-23T06:32:01;100812.60;;;21.36;50.58
64115;BME280;62188;35.640;139.748;2023-03-23T06:34:24;100817.15;;;21.38;50.49
64115;BME280;62188;35.640;139.748;2023-03-23T06:36:50;100811.71;;;21.61;50.72
64115;BME280;62188;35.640;139.748;2023-03-23T06:39:15;100799.57;;;21.38;50.65
64115;BME280;62188;35.640;139.748;2023-03-23T06:41:41;100793.30;;;21.36;50.50
64115;BME280;62188;35.640;139.748;2023-03-23T06:44:06;100789.29;;;21.33;50.73
64115;BME280;62188;35.640;139.748;2023-03-23T06:46:32;100778.59;;;21.34;50.81
64115;BME280;62188;35.640;139.748;2023-03-23T06:48:57;100776.62;;;21.34;50.50
64115;BME280;62188;35.640;139.748;2023-03-23T06:51:23;100778.22;;;21.35;50.63
64115;BME280;62188;35.640;139.748;2023-03-23T06:53:48;100780.31;;;21.37;50.82
64115;BME280;62188;35.640;139.748;2023-03-23T06:56:13;100774.88;;;21.36;50.67
64115;BME280;62188;35.640;139.748;2023-03-23T06:58:39;100776.57;;;21.36;50.42
64115;BME280;62188;35.640;139.748;2023-03-23T07:01:05;100775.24;;;21.34;50.20
64115;BME280;62188;35.640;139.748;2023-03-23T07:03:30;100767.62;;;21.36;50.32
64115;BME280;62188;35.640;139.748;2023-03-23T07:05:55;100765.46;;;21.36;50.14
64115;BME280;62188;35.640;139.748;2023-03-23T07:08:21;100764.52;;;21.35;50.26
64115;BME280;62188;35.640;139.748;2023-03-23T07:10:46;100766.79;;;21.33;50.38
64115;BME280;62188;35.640;139.748;2023-03-23T07:13:12;100764.26;;;21.32;50.14
64115;BME280;62188;35.640;139.748;2023-03-23T07:15:38;100758.63;;;21.33;50.39
64115;BME280;62188;35.640;139.748;2023-03-23T07:18:03;100750.88;;;21.30;50.36
64115;BME280;62188;35.640;139.748;2023-03-23T07:20:28;100748.18;;;21.28;50.43
64115;BME280;62188;35.640;139.748;2023-03-23T07:22:54;100741.35;;;21.27;50.62
64115;BME280;62188;35.640;139.748;2023-03-23T07:25:19;100740.95;;;21.28;50.46
64115;BME280;62188;35.640;139.748;2023-03-23T07:27:46;100736.49;;;21.26;50.66
64115;BME280;62188;35.640;139.748;2023-03-23T07:30:10;100734.48;;;21.26;50.66
64115;BME280;62188;35.640;139.748;2023-03-23T07:32:35;100731.01;;;21.26;50.83
64115;BME280;62188;35.640;139.748;2023-03-23T07:35:01;100738.73;;;21.24;50.65
64115;BME280;62188;35.640;139.748;2023-03-23T07:37:26;100745.17;;;21.24;50.40
64115;BME280;62188;35.640;139.748;2023-03-23T07:39:52;100734.86;;;21.25;50.73
64115;BME280;62188;35.640;139.748;2023-03-23T07:42:17;100721.21;;;21.01;50.65
64115;BME280;62188;35.640;139.748;2023-03-23T07:44:42;100712.19;;;21.49;50.41
64115;BME280;62188;35.640;139.748;2023-03-23T07:47:08;100715.72;;;21.24;50.45
64115;BME280;62188;35.640;139.748;2023-03-23T07:49:33;100723.37;;;21.24;50.46
64115;BME280;62188;35.640;139.748;2023-03-23T07:51:59;100723.03;;;21.00;50.76
64115;BME280;62188;35.640;139.748;2023-03-23T07:54:24;100720.00;;;21.22;50.81
64115;BME280;62188;35.640;139.748;2023-03-23T07:56:50;100705.87;;;21.16;50.71
64115;BME280;62188;35.640;139.748;2023-03-23T07:59:17;100697.23;;;21.12;50.57
64115;BME280;62188;35.640;139.748;2023-03-23T08:01:41;100693.86;;;20.87;50.61
64115;BME280;62188;35.640;139.748;2023-03-23T08:04:07;100695.16;;;21.37;50.85
64115;BME280;62188;35.640;139.748;2023-03-23T08:06:33;100689.71;;;21.13;50.65
64115;BME280;62188;35.640;139.748;2023-03-23T08:08:57;100689.59;;;21.36;50.42
64115;BME280;62188;35.640;139.748;2023-03-23T08:11:23;100687.83;;;21.12;50.60
64115;BME280;62188;35.640;139.748;2023-03-23T08:13:48;100682.12;;;21.10;50.67
64115;BME280;62188;35.640;139.748;2023-03-23T08:16:14;100673.25;;;21.06;50.79
64115;BME280;62188;35.640;139.748;2023-03-23T08:18:39;100661.17;;;21.04;50.91
64115;BME280;62188;35.640;139.748;2023-03-23T08:21:06;100655.14;;;21.00;50.89
64115;BME280;62188;35.640;139.748;2023-03-23T08:23:30;100658.70;;;20.97;50.84
64115;BME280;62188;35.640;139.748;2023-03-23T08:26:02;100656.23;;;20.94;50.88
64115;BME280;62188;35.640;139.748;2023-03-23T08:28:22;100655.50;;;20.92;51.03
64115;BME280;62188;35.640;139.748;2023-03-23T08:30:48;100648.72;;;20.61;51.17
64115;BME280;62188;35.640;139.748;2023-03-23T08:33:13;100640.89;;;20.73;51.57
64115;BME280;62188;35.640;139.748;2023-03-23T08:35:38;100643.07;;;20.70;51.87
64115;BME280;62188;35.640;139.748;2023-03-23T08:38:04;100638.03;;;20.58;51.77
64115;BME280;62188;35.640;139.748;2023-03-23T08:40:29;100628.33;;;20.45;52.04
64115;BME280;62188;35.640;139.748;2023-03-23T08:42:54;100620.88;;;20.82;52.30
64115;BME280;62188;35.640;139.748;2023-03-23T08:45:23;100619.51;;;20.72;52.53
64115;BME280;62188;35.640;139.748;2023-03-23T08:47:45;100613.09;;;20.63;52.74
64115;BME280;62188;35.640;139.748;2023-03-23T08:50:13;100606.71;;;20.58;53.05
64115;BME280;62188;35.640;139.748;2023-03-23T08:52:36;100601.22;;;20.60;53.14
64115;BME280;62188;35.640;139.748;2023-03-23T08:55:01;100599.54;;;20.39;53.12
64115;BME280;62188;35.640;139.748;2023-03-23T08:57:27;100601.61;;;20.63;52.77
64115;BME280;62188;35.640;139.748;2023-03-23T08:59:53;100599.17;;;20.12;53.05
64115;BME280;62188;35.640;139.748;2023-03-23T09:02:18;100594.52;;;20.40;53.17
64115;BME280;62188;35.640;139.748;2023-03-23T09:04:43;100589.09;;;20.67;53.18
64115;BME280;62188;35.640;139.748;2023-03-23T09:07:09;100584.22;;;20.68;53.26
64115;BME280;62188;35.640;139.748;2023-03-23T09:09:34;100579.54;;;20.72;53.13
64115;BME280;62188;35.640;139.748;2023-03-23T09:12:00;100578.26;;;20.52;53.20
64115;BME280;62188;35.640;139.748;2023-03-23T09:14:26;100579.31;;;20.49;52.86
64115;BME280;62188;35.640;139.748;2023-03-23T09:16:53;100573.05;;;20.35;52.85
64115;BME280;62188;35.640;139.748;2023-03-23T09:19:16;100569.98;;;20.31;53.26
64115;BME280;62188;35.640;139.748;2023-03-23T09:21:42;100565.88;;;20.54;53.28
64115;BME280;62188;35.640;139.748;2023-03-23T09:24:07;100563.83;;;20.49;53.40
64115;BME280;62188;35.640;139.748;2023-03-23T09:26:32;100561.19;;;19.96;53.31
64115;BME280;62188;35.640;139.748;2023-03-23T09:28:59;100559.52;;;20.39;53.34
64115;BME280;62188;35.640;139.748;2023-03-23T09:31:23;100560.91;;;20.37;53.46
64115;BME280;62188;35.640;139.748;2023-03-23T09:33:49;100562.80;;;20.52;53.46
64115;BME280;62188;35.640;139.748;2023-03-23T09:36:15;100559.51;;;20.24;53.72
64115;BME280;62188;35.640;139.748;2023-03-23T09:38:40;100559.33;;;20.13;53.80
64115;BME280;62188;35.640;139.748;2023-03-23T09:41:13;100563.40;;;20.15;53.92
64115;BME280;62188;35.640;139.748;2023-03-23T09:46:05;100555.93;;;20.23;53.90
64115;BME280;62188;35.640;139.748;2023-03-23T09:48:32;100552.98;;;20.28;53.91
64115;BME280;62188;35.640;139.748;2023-03-23T09:50:51;100552.30;;;20.25;53.87
64115;BME280;62188;35.640;139.748;2023-03-23T09:53:18;100545.19;;;20.23;54.09
64115;BME280;62188;35.640;139.748;2023-03-23T09:55:40;100545.58;;;19.99;54.16
64115;BME280;62188;35.640;139.748;2023-03-23T09:58:11;100539.29;;;20.17;54.30
64115;BME280;62188;35.640;139.748;2023-03-23T10:00:33;100536.20;;;20.10;54.45
64115;BME280;62188;35.640;139.748;2023-03-23T10:03:02;100536.41;;;20.08;54.46
64115;BME280;62188;35.640;139.748;2023-03-23T10:05:31;100541.78;;;20.05;54.67
64115;BME280;62188;35.640;139.748;2023-03-23T10:07:55;100540.66;;;19.98;54.69
64115;BME280;62188;35.640;139.748;2023-03-23T10:10:15;100540.37;;;19.93;54.91
64115;BME280;62188;35.640;139.748;2023-03-23T10:12:42;100532.05;;;19.59;56.18
64115;BME280;62188;35.640;139.748;2023-03-23T10:15:13;100543.93;;;19.82;56.12
64115;BME280;62188;35.640;139.748;2023-03-23T10:17:31;100549.50;;;19.28;57.06
64115;BME280;62188;35.640;139.748;2023-03-23T10:20:01;100550.03;;;19.76;57.75
64115;BME280;62188;35.640;139.748;2023-03-23T10:22:25;100539.19;;;19.61;57.93
64115;BME280;62188;35.640;139.748;2023-03-23T10:24:50;100538.33;;;19.75;58.60
64115;BME280;62188;35.640;139.748;2023-03-23T10:27:19;100534.92;;;19.92;58.60
64115;BME280;62188;35.640;139.748;2023-03-23T10:29:39;100536.42;;;19.42;58.87
64115;BME280;62188;35.640;139.748;2023-03-23T10:32:09;100531.07;;;19.64;59.26
64115;BME280;62188;35.640;139.748;2023-03-23T10:34:32;100529.74;;;19.62;59.60
64115;BME280;62188;35.640;139.748;2023-03-23T10:37:01;100525.81;;;19.96;59.48
64115;BME280;62188;35.640;139.748;2023-03-23T10:39:20;100519.16;;;20.04;59.50
64115;BME280;62188;35.640;139.748;2023-03-23T10:41:43;100507.49;;;19.94;59.44
64115;BME280;62188;35.640;139.748;2023-03-23T10:44:13;100505.43;;;20.18;59.40
64115;BME280;62188;35.640;139.748;2023-03-23T10:46:40;100490.95;;;19.92;59.25
64115;BME280;62188;35.640;139.748;2023-03-23T10:49:02;100480.54;;;20.29;58.87
64115;BME280;62188;35.640;139.748;2023-03-23T10:51:31;100477.48;;;19.89;58.64
64115;BME280;62188;35.640;139.748;2023-03-23T10:53:58;100476.39;;;20.09;59.01
64115;BME280;62188;35.640;139.748;2023-03-23T10:56:25;100465.01;;;20.24;59.25
64115;BME280;62188;35.640;139.748;2023-03-23T10:58:42;100460.40;;;19.93;59.51
64115;BME280;62188;35.640;139.748;2023-03-23T11:01:10;100457.61;;;20.34;59.34
64115;BME280;62188;35.640;139.748;2023-03-23T11:03:41;100447.63;;;20.18;59.14
64115;BME280;62188;35.640;139.748;2023-03-23T11:05:59;100447.46;;;20.34;59.35
64115;BME280;62188;35.640;139.748;2023-03-23T11:08:25;100445.46;;;20.05;59.58
64115;BME280;62188;35.640;139.748;2023-03-23T11:10:51;100442.91;;;19.66;60.31
64115;BME280;62188;35.640;139.748;2023-03-23T11:13:15;100459.44;;;20.13;60.04
64115;BME280;62188;35.640;139.748;2023-03-23T11:15:42;100437.84;;;19.92;60.07
64115;BME280;62188;35.640;139.748;2023-03-23T11:18:09;100441.72;;;20.14;59.76
64115;BME280;62188;35.640;139.748;2023-03-23T11:20:35;100450.16;;;19.98;59.51
64115;BME280;62188;35.640;139.748;2023-03-23T11:22:56;100471.15;;;20.08;59.08
64115;BME280;62188;35.640;139.748;2023-03-23T11:25:22;100473.79;;;20.09;59.06
64115;BME280;62188;35.640;139.748;2023-03-23T11:27:47;100462.94;;;20.06;58.70
64115;BME280;62188;35.640;139.748;2023-03-23T11:30:20;100486.43;;;20.22;58.74
64115;BME280;62188;35.640;139.748;2023-03-23T11:32:42;100459.81;;;19.86;58.92
64115;BME280;62188;35.640;139.748;2023-03-23T11:35:04;100464.87;;;20.25;58.68
64115;BME280;62188;35.640;139.748;2023-03-23T11:37:34;100471.14;;;20.33;58.63
64115;BME280;62188;35.640;139.748;2023-03-23T11:39:58;100453.07;;;20.23;58.63
64115;BME280;62188;35.640;139.748;2023-03-23T11:42:23;100463.26;;;20.27;58.46
64115;BME280;62188;35.640;139.748;2023-03-23T11:44:45;100456.21;;;20.43;58.29
64115;BME280;62188;35.640;139.748;2023-03-23T11:47:18;100441.58;;;20.32;58.13
64115;BME280;62188;35.640;139.748;2023-03-23T11:49:44;100421.17;;;20.75;57.89
64115;BME280;62188;35.640;139.748;2023-03-23T11:52:14;100425.98;;;20.81;57.47
64115;BME280;62188;35.640;139.748;2023-03-23T11:54:31;100435.16;;;20.84;57.41
64115;BME280;62188;35.640;139.748;2023-03-23T11:56:54;100453.93;;;20.55;57.21
64115;BME280;62188;35.640;139.748;2023-03-23T11:59:25;100427.38;;;20.50;57.12
64115;BME280;62188;35.640;139.748;2023-03-23T12:01:58;100414.11;;;20.68;57.04
64115;BME280;62188;35.640;139.748;2023-03-23T12:04:19;100396.88;;;20.79;56.82
64115;BME280;62188;35.640;139.748;2023-03-23T12:06:45;100420.58;;;20.90;56.78
64115;BME280;62188;35.640;139.748;2023-03-23T12:09:10;100435.39;;;20.88;56.72
64115;BME280;62188;35.640;139.748;2023-03-23T12:11:32;100429.98;;;20.90;56.56
64115;BME280;62188;35.640;139.748;2023-03-23T12:14:00;100449.26;;;20.77;56.87
64115;BME280;62188;35.640;139.748;2023-03-23T12:16:22;100432.68;;;20.67;56.87
64115;BME280;62188;35.640;139.748;2023-03-23T12:18:48;100420.25;;;20.76;56.60
64115;BME280;62188;35.640;139.748;2023-03-23T12:21:14;100416.73;;;20.59;56.52
64115;BME280;62188;35.640;139.748;2023-03-23T12:23:37;100428.02;;;20.82;56.52
64115;BME280;62188;35.640;139.748;2023-03-23T12:26:09;100423.33;;;20.80;56.57
64115;BME280;62188;35.640;139.748;2023-03-23T12:28:32;100429.55;;;20.66;56.37